Huvudsida
METAR-TAF:

METAR-TAF

Flygplatser :

Alta flygplats

Alta, Norge

latitud: 69-59N, longitud: 023-22E, höjd: 0 m

Aktuellt väderrapport

Denna rapport gjordes för 20 minuter sedan, klockan 07:20 UTC
Vind 4 kt från syd, varierande mellan ost och väst/sydväst
Temperatur -12°C
Fuktighet 66%
Tryck 1003 hPa
Sikt 10 km eller mer
Spridda moln på en höjd av 2400 ft
Brutna moln på en höjd av 4100 ft
lätt snö

METAR: ENAT 250720Z 17004KT 080V240 9999 -SN SCT024 BKN041 M12/M17 Q1003 RMK WIND 700FT 17011KT

Tid: 08:40 (07:40 UTC)

Väderprognos

Denna rapport gjordes för 2 timmar och 40 minuter sedan, klockan 05:00 UTC
Prognos gäller från 25 kl. 06 UTC till 25 kl. 15 UTC
Vind 8 kt från syd/sydost
Sikt 10 km eller mer
Spridda moln på en höjd av 2000 ft
Brutna moln på en höjd av 5000 ft

TAF: ENAT 250500Z 2506/2515 15008KT 9999 SCT020 BKN050

Aktuella väderrapporter och prognoser från 4000 flygplatser (METAR- och TAF-rapporter).

De tillgängliga stationerna syns som gula och röda prickar på kartan.

För musen över prickarna för att se namnen på stationerna.

Klicka sedan för att få väderrapporter och prognoser.

För att ändra kartan: Klicka på de gröna knapparna med ett svart kors på för att zooma in; den gröna knappen med ett streck på för att zooma ut; eller på de gröna pilarna för angränsande kartor.


METAR-TAF: